Time;durP1;ratioP1;P1;durP2;ratioP2;P2;SDS_P1;SDS_P2;PMS_P1;PMS_P2;Temp;Humidity;BMP_temperature;BMP_pressure;BME280_temperature;BME280_humidity;BME280_pressure;Samples;Min_cycle;Max_cycle;Signal;HPM_P1;HPM_P2
2023/12/20 00:12:25;;;;;;;10.20;6.05;;;5.10;99.90;;;;;;4883011;28;20038;-80
2023/12/20 00:14:53;;;;;;;9.05;5.55;;;5.00;99.90;;;;;;4999409;28;20114;-82
2023/12/20 00:17:42;;;;;;;8.90;5.90;;;4.90;99.90;;;;;;5020990;28;20466;-82
2023/12/20 00:20:16;;;;;;;9.15;5.55;;;5.00;99.90;;;;;;5036746;28;20030;-81
2023/12/20 00:22:42;;;;;;;8.65;5.95;;;;;;;;;;5036492;28;20083;-81
2023/12/20 00:25:20;;;;;;;11.23;5.93;;;5.20;99.90;;;;;;5044335;28;20026;-83
2023/12/20 00:27:59;;;;;;;9.95;5.82;;;4.90;99.90;;;;;;5055010;28;20030;-82
2023/12/20 00:30:41;;;;;;;10.13;5.90;;;4.90;99.90;;;;;;5036740;28;20036;-82
2023/12/20 00:33:20;;;;;;;11.13;6.82;;;4.90;99.90;;;;;;5034934;28;20030;-81
2023/12/20 00:35:56;;;;;;;;;;;;;;;;;;;;;
2023/12/20 00:38:44;;;;;;;;;;;;;;;;;;;;;
2023/12/20 00:48:26;;;;;;;9.05;5.75;;;;;;;;;;4990368;28;20044;-80
2023/12/20 00:50:55;;;;;;;10.10;5.82;;;;;;;;;;5032947;28;20041;-84
2023/12/20 00:53:24;;;;;;;10.50;5.82;;;;;;;;;;5051568;28;20033;-79
2023/12/20 01:02:16;;;;;;;7.95;4.88;;;;;;;;;;4996631;28;19905;-81
2023/12/20 01:05:12;;;;;;;7.80;5.07;;;5.10;99.90;;;;;;4984798;28;20034;-81
2023/12/20 01:18:23;;;;;;;8.05;5.22;;;5.10;99.90;;;;;;4985969;28;20043;-79
2023/12/20 01:21:35;;;;;;;;;;;;;;;;;;;;;
2023/12/20 01:43:43;;;;;;;7.72;4.90;;;4.00;99.90;;;;;;5040721;28;20061;-85
2023/12/20 01:46:12;;;;;;;7.88;5.03;;;5.30;99.90;;;;;;5033452;28;20109;-83
2023/12/20 01:48:38;;;;;;;9.15;5.47;;;5.30;99.90;;;;;;5028574;28;20029;-85
2023/12/20 01:51:05;;;;;;;9.27;4.80;;;5.40;99.90;;;;;;5037283;28;20034;-85
2023/12/20 01:53:33;;;;;;;7.18;4.50;;;7.40;99.90;;;;;;5018127;28;20026;-84
2023/12/20 01:56:01;;;;;;;7.60;5.25;;;5.30;99.90;;;;;;5038727;28;20021;-84
2023/12/20 01:58:27;;;;;;;8.30;5.13;;;6.10;99.90;;;;;;5024570;28;20547;-85
2023/12/20 02:00:54;;;;;;;8.90;5.18;;;5.90;99.90;;;;;;5025940;28;20033;-86
2023/12/20 02:03:20;;;;;;;7.57;4.57;;;5.40;99.90;;;;;;5034394;28;20065;-85
2023/12/20 02:05:47;;;;;;;7.07;4.20;;;;;;;;;;5037610;28;20036;-82
2023/12/20 02:08:14;;;;;;;7.47;4.85;;;;;;;;;;5035918;28;20512;-84
2023/12/20 02:10:40;;;;;;;7.10;4.60;;;5.40;99.90;;;;;;5035464;28;20106;-87
2023/12/20 02:13:06;;;;;;;7.50;4.43;;;5.30;99.90;;;;;;5037082;28;20080;-82
2023/12/20 02:15:32;;;;;;;7.93;4.38;;;5.40;99.90;;;;;;5042294;28;20025;-83
2023/12/20 02:17:58;;;;;;;6.68;4.50;;;;;;;;;;5021696;28;20028;-85
2023/12/20 02:20:23;;;;;;;6.70;4.55;;;5.40;99.90;;;;;;5040347;28;20073;-84
2023/12/20 02:22:49;;;;;;;7.85;4.85;;;5.40;99.90;;;;;;5042850;28;20029;-81
2023/12/20 02:25:15;;;;;;;6.53;4.57;;;;;;;;;;5023449;28;20029;-87
2023/12/20 02:27:41;;;;;;;6.22;4.15;;;5.50;99.90;;;;;;5045847;28;20044;-87
2023/12/20 02:30:07;;;;;;;7.88;4.53;;;7.30;99.90;;;;;;5047728;28;20033;-86
2023/12/20 02:32:33;;;;;;;7.13;4.85;;;5.50;99.90;;;;;;5019597;28;20084;-86
2023/12/20 02:34:59;;;;;;;7.65;4.57;;;5.50;99.90;;;;;;5019853;28;20363;-85
2023/12/20 02:37:24;;;;;;;8.05;4.43;;;5.50;99.90;;;;;;5044692;28;20504;-84
2023/12/20 02:39:50;;;;;;;7.38;4.93;;;;;;;;;;5046024;28;20041;-83
2023/12/20 02:42:16;;;;;;;7.85;4.70;;;5.50;99.90;;;;;;5014764;28;20038;-87
2023/12/20 02:44:42;;;;;;;8.30;4.78;;;5.50;99.90;;;;;;5039211;28;20037;-82
2023/12/20 02:47:07;;;;;;;8.80;4.72;;;7.60;99.90;;;;;;5027288;28;20026;-85
2023/12/20 02:49:33;;;;;;;9.25;5.10;;;5.50;99.90;;;;;;5025716;28;20029;-86
2023/12/20 02:51:59;;;;;;;7.03;4.85;;;6.80;99.90;;;;;;5042031;28;20036;-87
2023/12/20 02:54:24;;;;;;;7.05;4.90;;;5.60;99.90;;;;;;5039897;28;20021;-83
2023/12/20 02:56:50;;;;;;;8.65;4.53;;;;;;;;;;5024191;28;20025;-86
2023/12/20 02:59:16;;;;;;;7.28;4.40;;;;;;;;;;5026307;28;20033;-86
2023/12/20 03:01:44;;;;;;;5.72;4.00;;;;;;;;;;5039986;28;20030;-85
2023/12/20 03:04:11;;;;;;;6.82;4.40;;;5.60;99.90;;;;;;5028309;28;20033;-84
2023/12/20 03:06:36;;;;;;;6.53;4.25;;;5.60;99.90;;;;;;5041720;28;20025;-85
2023/12/20 03:09:02;;;;;;;6.13;4.07;;;6.10;99.90;;;;;;5051200;28;20040;-87
2023/12/20 03:11:28;;;;;;;6.00;4.40;;;5.70;99.90;;;;;;5022019;28;20026;-87
2023/12/20 03:13:54;;;;;;;6.20;4.22;;;5.70;99.90;;;;;;5033714;28;20049;-85
2023/12/20 03:16:20;;;;;;;6.90;4.45;;;;;;;;;;5042240;28;20033;-84
2023/12/20 03:18:46;;;;;;;6.80;4.30;;;5.70;99.90;;;;;;5025454;28;20037;-86
2023/12/20 03:21:12;;;;;;;6.95;4.68;;;3.60;99.90;;;;;;5041684;28;20045;-87
2023/12/20 03:23:38;;;;;;;7.32;4.28;;;5.80;99.90;;;;;;5035957;28;20037;-86
2023/12/20 03:26:06;;;;;;;5.82;4.10;;;5.70;99.90;;;;;;5022757;28;20037;-86
2023/12/20 03:28:32;;;;;;;6.35;4.47;;;6.10;99.90;;;;;;5029935;28;20409;-84
2023/12/20 03:30:57;;;;;;;7.78;4.82;;;5.80;99.90;;;;;;5043506;28;20056;-85
2023/12/20 03:33:23;;;;;;;6.93;4.30;;;;;;;;;;5015399;28;20497;-83
2023/12/20 03:35:49;;;;;;;7.63;4.75;;;5.80;99.90;;;;;;5041709;28;20033;-85
2023/12/20 03:38:15;;;;;;;7.57;4.78;;;7.70;99.90;;;;;;5025532;28;20029;-84
2023/12/20 03:40:40;;;;;;;8.00;4.15;;;5.80;99.90;;;;;;5024650;28;20026;-84
2023/12/20 03:43:06;;;;;;;7.15;4.57;;;;;;;;;;5041214;28;20048;-87
2023/12/20 03:45:33;;;;;;;8.90;4.78;;;5.90;99.90;;;;;;5041620;28;20029;-83
2023/12/20 03:47:59;;;;;;;8.02;5.50;;;5.90;99.90;;;;;;5029744;28;20021;-85
2023/12/20 03:50:25;;;;;;;6.55;4.88;;;;;;;;;;5026536;28;20040;-85
2023/12/20 03:52:51;;;;;;;8.80;5.10;;;;;;;;;;5043780;28;20028;-81
2023/12/20 03:55:17;;;;;;;6.57;4.32;;;5.90;99.90;;;;;;5048545;28;20028;-84
2023/12/20 03:57:43;;;;;;;7.13;4.68;;;5.90;99.90;;;;;;5024500;28;20030;-85
2023/12/20 04:00:10;;;;;;;6.72;4.50;;;6.00;99.90;;;;;;5027517;28;20604;-85
2023/12/20 04:02:37;;;;;;;7.15;4.60;;;6.00;99.90;;;;;;5039831;28;20022;-85
2023/12/20 04:05:02;;;;;;;13.10;4.38;;;6.00;99.90;;;;;;5045478;28;20052;-82
2023/12/20 04:07:29;;;;;;;8.35;4.95;;;6.10;99.90;;;;;;5033086;28;20033;-84
2023/12/20 04:09:55;;;;;;;7.60;4.60;;;6.00;99.90;;;;;;5040750;28;20026;-85
2023/12/20 04:12:21;;;;;;;6.95;3.92;;;8.50;99.90;;;;;;5028578;28;20041;-85
2023/12/20 04:14:47;;;;;;;6.15;3.97;;;;;;;;;;5038901;28;20022;-84
2023/12/20 04:17:16;;;;;;;8.88;5.00;;;6.10;99.90;;;;;;5026046;28;20096;-89
2023/12/20 04:19:42;;;;;;;7.30;4.53;;;6.10;99.90;;;;;;5038116;28;20033;-84
2023/12/20 04:22:08;;;;;;;6.40;4.28;;;6.10;99.90;;;;;;5026501;28;20092;-86
2023/12/20 04:24:34;;;;;;;8.90;4.85;;;6.20;99.90;;;;;;5026880;28;20021;-85
2023/12/20 04:27:00;;;;;;;7.40;4.10;;;7.60;99.90;;;;;;5008726;28;20025;-86
2023/12/20 04:29:25;;;;;;;7.68;4.70;;;6.30;99.90;;;;;;5038433;28;20529;-85
2023/12/20 04:31:51;;;;;;;7.53;4.90;;;6.20;99.90;;;;;;5044524;28;20106;-84
2023/12/20 04:34:17;;;;;;;7.35;4.03;;;6.30;99.90;;;;;;5033461;28;20081;-85
2023/12/20 04:36:43;;;;;;;6.43;4.45;;;6.40;99.90;;;;;;5027885;28;20017;-83
2023/12/20 04:39:09;;;;;;;6.28;4.05;;;;;;;;;;5027337;28;20036;-86
2023/12/20 04:41:35;;;;;;;7.60;3.88;;;6.40;99.90;;;;;;5026914;28;20049;-82
2023/12/20 04:44:00;;;;;;;6.22;4.25;;;7.80;99.90;;;;;;5037997;28;20041;-85
2023/12/20 04:46:26;;;;;;;5.47;2.95;;;7.40;99.90;;;;;;5056880;28;20017;-87
2023/12/20 04:48:52;;;;;;;7.07;3.00;;;6.60;99.90;;;;;;5063048;28;20037;-85
2023/12/20 04:51:18;;;;;;;4.57;2.90;;;6.60;99.90;;;;;;5062665;28;20036;-83
2023/12/20 04:53:44;;;;;;;5.78;2.47;;;;;;;;;;5058447;28;20017;-82
2023/12/20 04:56:09;;;;;;;4.13;2.40;;;6.60;99.90;;;;;;5059473;28;20030;-86
2023/12/20 04:58:35;;;;;;;5.30;2.53;;;8.90;99.90;;;;;;5059277;28;21253;-86
2023/12/20 05:01:01;;;;;;;3.97;1.98;;;6.70;99.90;;;;;;5066958;28;20083;-83
2023/12/20 05:03:26;;;;;;;5.28;2.25;;;6.70;99.90;;;;;;5052072;28;20032;-85
2023/12/20 05:05:52;;;;;;;5.43;2.10;;;6.70;99.90;;;;;;5032530;28;20116;-82
2023/12/20 05:08:18;;;;;;;7.55;2.10;;;6.70;99.90;;;;;;5058373;28;20036;-81
2023/12/20 05:10:43;;;;;;;6.03;2.33;;;7.00;99.90;;;;;;5038575;28;20029;-84
2023/12/20 05:13:09;;;;;;;5.65;2.20;;;8.40;99.90;;;;;;5059137;28;20025;-87
2023/12/20 05:15:35;;;;;;;5.93;1.85;;;6.60;99.90;;;;;;5063467;28;20036;-86
2023/12/20 05:18:00;;;;;;;6.40;1.90;;;6.50;99.90;;;;;;5052251;28;20313;-86
2023/12/20 05:20:26;;;;;;;7.07;1.67;;;8.80;99.90;;;;;;5060659;28;20033;-85
2023/12/20 05:22:52;;;;;;;3.42;1.38;;;6.30;99.90;;;;;;5060500;28;20028;-87
2023/12/20 05:25:17;;;;;;;8.15;1.85;;;8.10;99.90;;;;;;5048628;28;20025;-87
2023/12/20 05:27:43;;;;;;;5.07;1.50;;;6.20;99.90;;;;;;5046120;28;20054;-85
2023/12/20 05:30:09;;;;;;;5.03;1.63;;;6.10;99.90;;;;;;5041525;28;20034;-87
2023/12/20 05:32:35;;;;;;;5.65;1.75;;;6.00;99.90;;;;;;5038992;28;20041;-86
2023/12/20 05:35:01;;;;;;;5.68;1.90;;;6.00;99.90;;;;;;5045883;28;20037;-86
2023/12/20 05:37:27;;;;;;;5.00;1.65;;;;;;;;;;5060937;28;20036;-84
2023/12/20 05:39:52;;;;;;;7.22;2.10;;;5.90;99.90;;;;;;5058682;28;20056;-86
2023/12/20 05:42:18;;;;;;;7.20;2.20;;;8.30;99.90;;;;;;5068431;28;20033;-86
2023/12/20 05:44:44;;;;;;;9.35;2.17;;;7.70;99.90;;;;;;5042138;28;20009;-84
2023/12/20 05:47:09;;;;;;;5.47;1.70;;;5.80;99.90;;;;;;5051923;28;20032;-83
2023/12/20 05:49:35;;;;;;;5.38;1.70;;;7.60;99.90;;;;;;5052905;28;20025;-84
2023/12/20 05:52:01;;;;;;;6.00;1.90;;;5.90;99.90;;;;;;5051715;28;20036;-83
2023/12/20 05:54:26;;;;;;;4.38;1.50;;;5.80;99.90;;;;;;5072314;28;20005;-85
2023/12/20 05:56:52;;;;;;;9.13;1.85;;;5.80;99.90;;;;;;5053415;28;20029;-83
2023/12/20 05:59:18;;;;;;;5.68;1.92;;;;;;;;;;5070922;28;20043;-85
2023/12/20 06:01:43;;;;;;;5.60;1.70;;;5.80;99.90;;;;;;5048085;28;20028;-87
2023/12/20 06:04:09;;;;;;;6.50;2.80;;;;;;;;;;5071884;28;20029;-84
2023/12/20 06:06:42;;;;;;;4.60;1.67;;;5.70;99.90;;;;;;5073465;28;20013;-88
2023/12/20 06:09:08;;;;;;;5.47;2.08;;;;;;;;;;5057793;28;20512;-87
2023/12/20 06:11:33;;;;;;;8.82;2.10;;;5.70;99.90;;;;;;5066113;28;20043;-86
2023/12/20 06:13:59;;;;;;;9.13;1.80;;;5.60;99.90;;;;;;5061672;28;20116;-85
2023/12/20 06:16:25;;;;;;;5.75;1.70;;;5.50;99.90;;;;;;5072809;28;20052;-86
2023/12/20 06:18:50;;;;;;;8.07;1.85;;;6.60;99.90;;;;;;5067632;28;20030;-85
2023/12/20 06:21:17;;;;;;;6.15;1.70;;;;;;;;;;5060714;28;20043;-85
2023/12/20 06:23:42;;;;;;;5.43;2.00;;;5.50;99.90;;;;;;5065040;28;20227;-86
2023/12/20 06:26:08;;;;;;;6.97;2.40;;;7.30;99.90;;;;;;5069378;28;20040;-83
2023/12/20 06:28:34;;;;;;;6.57;2.17;;;5.50;99.90;;;;;;5062694;28;20029;-82
2023/12/20 06:31:00;;;;;;;13.35;2.72;;;5.50;99.90;;;;;;5053081;28;20032;-86
2023/12/20 06:33:26;;;;;;;11.35;2.67;;;5.40;99.90;;;;;;5047648;28;20025;-86
2023/12/20 06:35:52;;;;;;;9.75;2.50;;;5.40;99.90;;;;;;5069224;28;20021;-85
2023/12/20 06:38:18;;;;;;;7.40;2.40;;;5.40;99.90;;;;;;5045502;28;20029;-83
2023/12/20 06:40:45;;;;;;;8.98;3.22;;;5.40;99.90;;;;;;5065020;28;20055;-86
2023/12/20 06:43:11;;;;;;;6.88;3.03;;;7.50;99.90;;;;;;5050252;28;20053;-85
2023/12/20 06:45:37;;;;;;;30.67;11.18;;;5.50;99.90;;;;;;5059654;28;20010;-85
2023/12/20 06:48:03;;;;;;;8.95;2.88;;;5.40;99.90;;;;;;5049741;28;20618;-86
2023/12/20 06:50:29;;;;;;;9.95;2.42;;;;;;;;;;5049198;28;20089;-85
2023/12/20 06:52:55;;;;;;;9.52;2.80;;;5.30;99.90;;;;;;5063667;28;20025;-89
2023/12/20 06:55:21;;;;;;;7.85;3.20;;;5.30;99.90;;;;;;5061923;28;20525;-86
2023/12/20 06:57:47;;;;;;;12.18;3.13;;;;;;;;;;5058209;28;20029;-87
2023/12/20 07:00:13;;;;;;;9.48;2.50;;;5.40;99.90;;;;;;5038645;28;20060;-86
2023/12/20 07:02:38;;;;;;;7.32;2.10;;;5.30;99.90;;;;;;5063978;28;20068;-84
2023/12/20 07:05:04;;;;;;;4.65;2.30;;;5.40;99.90;;;;;;5041386;28;20033;-83
2023/12/20 07:07:31;;;;;;;9.52;2.50;;;;;;;;;;5062630;28;20025;-85
2023/12/20 07:09:57;;;;;;;5.68;2.00;;;;;;;;;;5055876;28;20049;-85
2023/12/20 07:12:23;;;;;;;6.85;2.42;;;;;;;;;;5066226;28;20041;-85
2023/12/20 07:14:50;;;;;;;6.45;2.50;;;5.40;99.90;;;;;;5054137;28;20051;-87
2023/12/20 07:17:16;;;;;;;7.03;2.15;;;5.40;99.90;;;;;;5066063;28;20116;-86
2023/12/20 07:19:42;;;;;;;8.25;2.28;;;5.40;99.90;;;;;;5045652;28;20040;-86
2023/12/20 07:22:08;;;;;;;8.50;2.63;;;;;;;;;;5051706;28;20032;-90
2023/12/20 07:24:34;;;;;;;9.20;2.13;;;;;;;;;;5047855;28;20022;-84
2023/12/20 07:27:00;;;;;;;8.52;1.95;;;;;;;;;;5059020;28;20029;-87
2023/12/20 07:29:30;;;;;;;4.93;2.13;;;;;;;;;;5054095;28;20564;-87
2023/12/20 07:31:56;;;;;;;7.03;2.25;;;;;;;;;;5048872;28;20028;-87
2023/12/20 07:34:22;;;;;;;6.43;2.10;;;;;;;;;;5049789;28;20838;-87
2023/12/20 07:36:48;;;;;;;6.05;2.17;;;;;;;;;;5050433;28;20018;-88
2023/12/20 07:39:14;;;;;;;11.48;2.30;;;;;;;;;;5063845;28;20056;-86
2023/12/20 07:41:40;;;;;;;10.48;2.40;;;5.50;99.90;;;;;;5067730;28;20028;-85
2023/12/20 07:44:06;;;;;;;9.88;2.63;;;5.50;99.90;;;;;;5049912;28;20613;-86
2023/12/20 07:46:32;;;;;;;12.80;3.38;;;5.50;99.90;;;;;;5066622;28;20037;-85
2023/12/20 07:48:57;;;;;;;12.25;2.80;;;5.50;99.90;;;;;;5061712;28;20031;-84
2023/12/20 07:51:23;;;;;;;7.13;2.70;;;5.50;99.90;;;;;;5061051;28;20085;-85
2023/12/20 07:53:49;;;;;;;15.68;2.97;;;;;;;;;;5063010;28;20027;-86
2023/12/20 07:56:19;;;;;;;5.93;2.50;;;5.50;99.90;;;;;;5064034;28;20056;-86
2023/12/20 07:58:49;;;;;;;6.60;2.25;;;;;;;;;;5065193;28;20055;-83
2023/12/20 08:01:18;;;;;;;4.75;2.42;;;;;;;;;;5063790;28;20048;-85
2023/12/20 08:03:44;;;;;;;6.43;2.60;;;;;;;;;;5055574;28;20021;-88
2023/12/20 08:06:13;;;;;;;11.70;3.00;;;;;;;;;;5040925;28;20032;-86
2023/12/20 08:08:39;;;;;;;9.10;2.85;;;;;;;;;;5048233;28;20097;-84
2023/12/20 08:11:05;;;;;;;9.52;2.55;;;;;;;;;;5066074;28;20037;-86
2023/12/20 08:13:31;;;;;;;8.43;2.88;;;5.70;99.90;;;;;;5060969;28;20021;-86
2023/12/20 08:15:56;;;;;;;8.98;2.88;;;5.70;99.90;;;;;;5068783;28;20055;-85
2023/12/20 08:18:23;;;;;;;8.70;3.22;;;5.70;99.90;;;;;;5070855;28;20040;-87
2023/12/20 08:20:49;;;;;;;16.75;4.00;;;7.60;99.90;;;;;;5066560;28;20009;-88
2023/12/20 08:23:15;;;;;;;8.48;3.00;;;6.30;99.90;;;;;;5062737;28;20055;-86
2023/12/20 08:25:41;;;;;;;10.45;2.92;;;5.70;99.90;;;;;;5046293;28;20071;-86
2023/12/20 08:28:07;;;;;;;18.80;3.30;;;;;;;;;;5059717;28;20037;-87
2023/12/20 08:30:33;;;;;;;9.50;3.00;;;5.60;99.90;;;;;;5054216;28;20422;-84
2023/12/20 08:33:02;;;;;;;10.13;2.63;;;5.80;99.90;;;;;;5072574;28;20036;-86
2023/12/20 08:35:28;;;;;;;7.95;2.65;;;5.80;99.90;;;;;;5055198;28;20025;-85
2023/12/20 08:37:53;;;;;;;8.65;3.22;;;5.80;99.90;;;;;;5042619;28;20029;-87
2023/12/20 08:40:20;;;;;;;7.25;2.90;;;7.30;99.90;;;;;;5042024;28;20040;-87
2023/12/20 08:42:45;;;;;;;7.50;2.78;;;5.80;99.90;;;;;;5065003;28;20350;-86
2023/12/20 08:45:11;;;;;;;10.55;3.22;;;7.50;99.90;;;;;;5059990;28;20060;-84
2023/12/20 08:47:37;;;;;;;8.18;3.20;;;;;;;;;;5047656;28;20059;-87
2023/12/20 08:50:04;;;;;;;10.60;3.25;;;5.90;99.90;;;;;;5046993;28;20040;-84
2023/12/20 08:52:29;;;;;;;12.13;3.50;;;5.90;99.90;;;;;;5059051;28;20036;-83
2023/12/20 08:54:55;;;;;;;11.60;3.22;;;5.90;99.90;;;;;;5058844;28;20093;-87
2023/12/20 08:57:23;;;;;;;11.30;3.13;;;;;;;;;;5043590;28;20115;-84
2023/12/20 08:59:51;;;;;;;12.70;4.30;;;6.10;99.90;;;;;;5047926;28;20053;-86
2023/12/20 09:02:17;;;;;;;13.85;4.40;;;6.10;99.90;;;;;;5066177;28;20036;-84
2023/12/20 09:04:43;;;;;;;14.95;4.32;;;6.20;99.90;;;;;;5062612;28;20025;-85
2023/12/20 09:07:26;;;;;;;7.07;3.33;;;6.20;99.90;;;;;;5045191;28;20033;-83
2023/12/20 09:09:52;;;;;;;13.73;4.28;;;6.50;99.90;;;;;;5048148;28;20019;-83
2023/12/20 09:12:19;;;;;;;10.55;3.17;;;6.50;99.90;;;;;;5049641;28;20032;-87
2023/12/20 09:14:50;;;;;;;6.32;2.30;;;9.30;99.90;;;;;;5055489;28;20025;-83
2023/12/20 09:17:16;;;;;;;6.35;2.75;;;6.30;99.90;;;;;;5043498;28;20032;-87
2023/12/20 09:19:43;;;;;;;11.50;3.45;;;6.40;99.90;;;;;;5058625;28;20029;-83
2023/12/20 09:22:10;;;;;;;9.20;3.03;;;;;;;;;;5043818;28;20125;-81
2023/12/20 09:24:36;;;;;;;8.10;2.92;;;6.40;99.90;;;;;;5049725;28;20025;-82
2023/12/20 09:27:02;;;;;;;9.07;2.70;;;6.40;99.90;;;;;;5057832;28;20477;-83
2023/12/20 09:29:28;;;;;;;9.73;3.60;;;;;;;;;;5061334;28;20043;-86
2023/12/20 09:31:54;;;;;;;8.43;3.47;;;;;;;;;;5069205;28;20101;-83
2023/12/20 09:34:21;;;;;;;15.65;3.00;;;;;;;;;;5053913;28;20029;-87
2023/12/20 09:36:47;;;;;;;10.25;2.58;;;;;;;;;;5061605;28;20025;-79
2023/12/20 09:39:19;;;;;;;6.00;2.55;;;6.60;99.90;;;;;;5068531;28;20017;-83
2023/12/20 09:41:46;;;;;;;10.30;3.28;;;6.60;99.90;;;;;;5069011;28;20088;-81
2023/12/20 09:44:19;;;;;;;10.13;3.10;;;6.60;99.90;;;;;;5063890;28;20073;-83
2023/12/20 09:46:48;;;;;;;13.48;2.97;;;5.70;99.90;;;;;;5066543;28;20029;-83
2023/12/20 09:49:14;;;;;;;9.38;2.78;;;6.60;99.90;;;;;;5059465;28;20039;-86
2023/12/20 09:51:40;;;;;;;12.60;3.83;;;6.60;99.90;;;;;;5046045;28;20028;-82
2023/12/20 09:54:06;;;;;;;13.90;3.25;;;6.60;99.90;;;;;;5046862;28;20037;-86
2023/12/20 09:56:32;;;;;;;11.88;3.20;;;7.90;99.90;;;;;;5047170;28;20091;-85
2023/12/20 09:58:59;;;;;;;9.68;3.33;;;6.80;99.90;;;;;;5045556;28;20128;-87
2023/12/20 10:01:26;;;;;;;10.38;2.72;;;6.80;99.90;;;;;;5042527;28;20117;-81
2023/12/20 10:03:54;;;;;;;10.10;2.60;;;6.70;99.90;;;;;;5047593;28;20021;-86
2023/12/20 10:06:21;;;;;;;8.38;2.78;;;6.70;99.90;;;;;;5049145;28;20044;-82
2023/12/20 10:08:47;;;;;;;19.52;3.72;;;6.60;99.90;;;;;;5053297;28;20059;-81
2023/12/20 10:11:13;;;;;;;10.38;2.75;;;;;;;;;;5072070;28;20092;-82
2023/12/20 10:13:44;;;;;;;8.23;2.25;;;6.60;99.90;;;;;;5055300;28;20033;-83
2023/12/20 10:16:09;;;;;;;9.68;2.45;;;8.50;99.90;;;;;;5054092;28;20017;-82
2023/12/20 10:18:35;;;;;;;12.05;3.55;;;6.70;99.90;;;;;;5047851;28;20096;-83
2023/12/20 10:21:03;;;;;;;11.25;2.85;;;;;;;;;;5047829;28;20064;-86
2023/12/20 10:23:29;;;;;;;11.07;3.42;;;;;;;;;;5063117;28;20044;-86
2023/12/20 10:25:58;;;;;;;11.15;2.58;;;6.60;99.90;;;;;;5048084;28;20035;-85
2023/12/20 10:28:27;;;;;;;8.30;3.03;;;;;;;;;;5061812;28;20014;-84
2023/12/20 10:30:56;;;;;;;12.68;3.05;;;6.50;99.90;;;;;;5066640;28;20047;-85
2023/12/20 10:33:32;;;;;;;10.20;2.67;;;6.60;99.90;;;;;;5060004;28;20559;-84
2023/12/20 10:35:58;;;;;;;8.90;2.58;;;;;;;;;;5067541;28;20021;-84
2023/12/20 10:38:24;;;;;;;15.07;2.90;;;;;;;;;;5071931;28;20017;-86
2023/12/20 10:40:56;;;;;;;12.32;3.15;;;6.60;99.90;;;;;;5070318;28;20036;-82
2023/12/20 10:43:26;;;;;;;9.63;3.50;;;6.60;99.90;;;;;;5071631;28;20060;-86
2023/12/20 10:45:52;;;;;;;9.10;3.10;;;9.00;99.90;;;;;;5071159;28;20092;-86
2023/12/20 10:48:18;;;;;;;11.52;2.90;;;;;;;;;;5058550;28;20029;-81
2023/12/20 10:50:45;;;;;;;6.88;2.97;;;;;;;;;;5061095;28;20045;-88
2023/12/20 10:53:12;;;;;;;10.10;2.35;;;6.80;99.90;;;;;;5065564;28;20025;-86
2023/12/20 10:55:38;;;;;;;11.52;2.60;;;6.90;99.90;;;;;;5050122;28;20021;-87
2023/12/20 10:58:10;;;;;;;8.10;2.30;;;9.60;99.90;;;;;;5046720;28;20052;-84
2023/12/20 11:00:44;;;;;;;10.20;2.25;;;7.00;99.90;;;;;;5049314;28;20032;-87
2023/12/20 11:03:12;;;;;;;11.38;3.03;;;6.90;99.90;;;;;;5043926;28;20053;-87
2023/12/20 11:05:53;;;;;;;9.77;2.25;;;7.60;99.90;;;;;;5043024;28;20085;-84
2023/12/20 11:08:42;;;;;;;9.07;2.40;;;7.10;99.90;;;;;;5053712;28;20034;-85
2023/12/20 11:11:28;;;;;;;8.05;2.47;;;7.10;99.90;;;;;;5024438;28;20043;-88
2023/12/20 11:14:08;;;;;;;9.82;2.45;;;7.20;99.90;;;;;;5058265;28;20025;-82
2023/12/20 11:16:37;;;;;;;7.47;2.17;;;7.20;99.90;;;;;;5055036;28;20028;-82
2023/12/20 11:19:06;;;;;;;8.77;2.15;;;7.20;99.90;;;;;;5043999;28;20078;-83
2023/12/20 11:21:33;;;;;;;10.20;2.63;;;;;;;;;;5057503;28;20389;-83
2023/12/20 11:24:00;;;;;;;8.25;2.47;;;7.20;99.90;;;;;;5069589;28;20110;-85
2023/12/20 11:26:29;;;;;;;12.02;2.67;;;7.30;99.90;;;;;;5047518;28;20388;-86
2023/12/20 11:29:33;;;;;;;9.07;2.22;;;8.50;99.90;;;;;;5063615;28;20028;-86
2023/12/20 11:32:01;;;;;;;7.88;2.38;;;8.00;99.90;;;;;;5047113;28;20029;-87
2023/12/20 11:34:28;;;;;;;7.07;3.13;;;9.20;99.90;;;;;;5050124;28;20025;-85
2023/12/20 11:36:59;;;;;;;11.63;2.22;;;8.00;99.90;;;;;;5050269;28;20032;-85
2023/12/20 11:39:25;;;;;;;;;;;8.70;99.90;;;;;;5078266;23;20162;-84
2023/12/20 11:41:51;;;;;;;8.65;2.47;;;6.90;99.90;;;;;;5047937;28;19912;-81
2023/12/20 11:44:17;;;;;;;10.68;2.10;;;7.00;99.90;;;;;;5025086;28;20029;-83
2023/12/20 11:46:44;;;;;;;10.88;2.92;;;6.90;99.90;;;;;;5033433;28;20025;-85
2023/12/20 11:49:11;;;;;;;10.40;1.73;;;7.00;99.90;;;;;;5034408;28;20025;-82
2023/12/20 11:51:42;;;;;;;8.35;2.17;;;7.00;99.90;;;;;;5020959;28;20029;-80
2023/12/20 11:54:08;;;;;;;7.03;2.10;;;;;;;;;;5027127;28;20359;-83
2023/12/20 11:56:36;;;;;;;5.03;1.63;;;7.00;99.90;;;;;;5040943;28;20055;-84
2023/12/20 11:59:01;;;;;;;11.63;2.47;;;7.00;99.90;;;;;;5024904;28;20052;-80
2023/12/20 12:01:27;;;;;;;9.27;1.92;;;;;;;;;;5040247;28;20025;-83
2023/12/20 12:04:06;;;;;;;11.10;2.10;;;;;;;;;;5021035;28;20033;-84
2023/12/20 12:06:33;;;;;;;10.40;2.65;;;;;;;;;;5035672;28;20029;-79
2023/12/20 12:09:03;;;;;;;15.65;2.47;;;;;;;;;;5015001;28;20025;-84
2023/12/20 12:11:29;;;;;;;12.13;2.72;;;;;;;;;;5041927;28;20041;-83
2023/12/20 12:13:55;;;;;;;7.28;2.40;;;;;;;;;;5043120;28;20042;-86
2023/12/20 12:16:21;;;;;;;7.95;2.22;;;;;;;;;;5043864;28;20032;-82
2023/12/20 12:18:55;;;;;;;8.70;2.30;;;7.10;99.90;;;;;;5044749;28;20053;-81
2023/12/20 12:21:21;;;;;;;8.93;2.28;;;7.10;99.90;;;;;;5025647;28;20025;-84
2023/12/20 12:23:47;;;;;;;8.88;3.08;;;7.00;99.90;;;;;;5026831;28;20080;-83
2023/12/20 12:26:12;;;;;;;17.42;3.05;;;8.60;99.90;;;;;;5024961;28;20026;-83
2023/12/20 12:28:41;;;;;;;8.85;2.17;;;7.10;99.90;;;;;;5044317;28;20032;-84
2023/12/20 12:31:07;;;;;;;9.18;2.13;;;;;;;;;;5027593;28;20557;-83
2023/12/20 12:33:34;;;;;;;10.85;2.88;;;7.20;99.90;;;;;;5042044;28;20048;-81
2023/12/20 12:36:01;;;;;;;17.63;3.72;;;9.20;99.90;;;;;;5039609;28;20101;-81
2023/12/20 12:38:27;;;;;;;13.63;2.80;;;7.60;99.90;;;;;;5026206;28;20048;-86
2023/12/20 12:40:54;;;;;;;9.98;2.33;;;7.10;99.90;;;;;;5049054;28;20084;-82
2023/12/20 12:43:20;;;;;;;7.65;2.45;;;7.40;99.90;;;;;;5069234;28;20032;-82
2023/12/20 12:45:46;;;;;;;10.57;2.17;;;;;;;;;;5065127;28;20021;-87
2023/12/20 12:48:12;;;;;;;9.32;3.00;;;7.00;99.90;;;;;;5069525;28;20052;-84
2023/12/20 12:50:38;;;;;;;15.90;3.75;;;7.10;99.90;;;;;;5067571;28;21082;-83
2023/12/20 12:53:03;;;;;;;11.45;2.80;;;8.00;99.90;;;;;;5063870;28;20005;-83
2023/12/20 12:55:30;;;;;;;11.13;2.95;;;;;;;;;;5043066;28;20033;-82
2023/12/20 12:57:55;;;;;;;10.55;2.40;;;7.10;99.90;;;;;;5062344;28;20039;-85
2023/12/20 13:00:21;;;;;;;7.38;2.05;;;9.30;99.90;;;;;;5046233;28;20036;-87
2023/12/20 13:02:47;;;;;;;11.95;2.70;;;;;;;;;;5064578;28;20036;-84
2023/12/20 13:05:13;;;;;;;10.43;2.30;;;;;;;;;;5065925;28;20013;-84
2023/12/20 13:07:39;;;;;;;9.48;2.10;;;;;;;;;;5061084;28;20028;-87
2023/12/20 13:10:08;;;;;;;13.63;2.00;;;7.20;99.90;;;;;;5064238;28;20048;-87
2023/12/20 13:12:34;;;;;;;7.43;2.20;;;;;;;;;;5048944;28;20025;-83
2023/12/20 13:15:06;;;;;;;11.70;2.70;;;;;;;;;;5065037;28;20032;-85
2023/12/20 13:17:32;;;;;;;6.78;2.00;;;;;;;;;;5067996;28;20444;-88
2023/12/20 13:19:59;;;;;;;14.20;2.78;;;;;;;;;;5066227;28;20045;-89
2023/12/20 13:22:25;;;;;;;9.50;1.95;;;;;;;;;;5070836;28;20021;-88
2023/12/20 13:24:51;;;;;;;7.72;2.45;;;;;;;;;;5069509;28;20032;-85
2023/12/20 13:27:17;;;;;;;8.43;1.98;;;;;;;;;;5067468;28;20009;-87
2023/12/20 13:29:43;;;;;;;30.15;11.75;;;;;;;;;;5047775;28;20028;-83
2023/12/20 13:32:09;;;;;;;28.55;9.07;;;;;;;;;;5071530;28;20096;-83
2023/12/20 13:34:35;;;;;;;13.95;3.47;;;;;;;;;;5062685;28;20025;-83
2023/12/20 13:37:01;;;;;;;37.15;14.18;;;7.10;99.90;;;;;;5057310;28;20025;-85
2023/12/20 13:39:27;;;;;;;8.68;2.70;;;7.00;99.90;;;;;;5062539;28;20036;-84
2023/12/20 13:41:53;;;;;;;13.30;2.30;;;;;;;;;;5051601;28;20082;-84
2023/12/20 13:44:19;;;;;;;14.20;3.40;;;;;;;;;;5065529;28;20021;-88
2023/12/20 13:46:49;;;;;;;14.77;2.83;;;;;;;;;;5041291;28;20289;-86
2023/12/20 13:49:15;;;;;;;22.20;5.88;;;;;;;;;;5040391;28;20044;-84
2023/12/20 13:51:41;;;;;;;55.15;24.00;;;7.00;99.90;;;;;;5058652;28;20056;-87
2023/12/20 13:54:07;;;;;;;27.30;11.48;;;;;;;;;;5046128;28;20036;-85
2023/12/20 13:56:34;;;;;;;15.40;5.20;;;7.00;99.90;;;;;;5061174;28;20016;-88
2023/12/20 13:58:59;;;;;;;8.20;2.40;;;7.20;99.90;;;;;;5050578;28;20021;-85
2023/12/20 14:01:26;;;;;;;8.18;2.35;;;8.50;99.90;;;;;;5054574;28;20032;-86
2023/12/20 14:03:52;;;;;;;36.22;14.48;;;7.00;99.90;;;;;;5066630;28;20040;-86
2023/12/20 14:06:17;;;;;;;17.42;5.07;;;7.10;99.90;;;;;;5062021;28;20033;-89
2023/12/20 14:08:44;;;;;;;11.82;2.63;;;;;;;;;;5066127;28;20060;-83
2023/12/20 14:11:10;;;;;;;13.77;5.93;;;7.10;99.90;;;;;;5066366;28;20017;-86
2023/12/20 14:13:36;;;;;;;16.27;5.60;;;7.20;99.90;;;;;;5044627;28;20686;-86
2023/12/20 14:16:03;;;;;;;17.73;7.03;;;;;;;;;;5064327;28;20044;-87
2023/12/20 14:18:30;;;;;;;12.48;3.30;;;7.20;99.90;;;;;;5059848;28;20097;-81
2023/12/20 14:20:55;;;;;;;23.27;9.43;;;7.10;99.90;;;;;;5052314;28;20020;-86